sensor_id;sensor_type;location;lat;lon;timestamp;pressure;altitude;pressure_sealevel;temperature;humidity
58072;BME280;60383;46.626;18.866;2022-12-08T00:00:47;100418.09;;;4.09;86.32
58072;BME280;60383;46.626;18.866;2022-12-08T00:03:13;100420.72;;;4.11;86.13
58072;BME280;60383;46.626;18.866;2022-12-08T00:05:46;100418.69;;;4.02;86.45
58072;BME280;60383;46.626;18.866;2022-12-08T00:08:31;100417.38;;;4.07;87.03
58072;BME280;60383;46.626;18.866;2022-12-08T00:11:16;100414.41;;;4.10;86.49
58072;BME280;60383;46.626;18.866;2022-12-08T00:13:42;100420.09;;;4.07;87.00
58072;BME280;60383;46.626;18.866;2022-12-08T00:16:08;100416.28;;;4.10;87.08
58072;BME280;60383;46.626;18.866;2022-12-08T00:18:33;100412.69;;;4.09;87.06
58072;BME280;60383;46.626;18.866;2022-12-08T00:20:59;100422.56;;;4.10;86.97
58072;BME280;60383;46.626;18.866;2022-12-08T00:23:25;100411.19;;;4.05;87.30
58072;BME280;60383;46.626;18.866;2022-12-08T00:25:50;100411.19;;;4.05;86.70
58072;BME280;60383;46.626;18.866;2022-12-08T00:28:16;100409.34;;;4.06;87.23
58072;BME280;60383;46.626;18.866;2022-12-08T00:30:42;100411.19;;;4.05;86.94
58072;BME280;60383;46.626;18.866;2022-12-08T00:33:08;100416.19;;;3.98;87.89
58072;BME280;60383;46.626;18.866;2022-12-08T00:35:34;100416.75;;;3.79;88.16
58072;BME280;60383;46.626;18.866;2022-12-08T00:37:59;100421.63;;;3.98;87.18
58072;BME280;60383;46.626;18.866;2022-12-08T00:40:25;100418.91;;;3.98;87.75
58072;BME280;60383;46.626;18.866;2022-12-08T00:42:50;100423.09;;;3.91;87.61
58072;BME280;60383;46.626;18.866;2022-12-08T00:45:16;100419.75;;;3.88;88.12
58072;BME280;60383;46.626;18.866;2022-12-08T00:47:41;100421.63;;;3.98;87.98
58072;BME280;60383;46.626;18.866;2022-12-08T00:50:07;100417.72;;;4.03;88.16
58072;BME280;60383;46.626;18.866;2022-12-08T00:52:33;100427.16;;;3.97;88.46
58072;BME280;60383;46.626;18.866;2022-12-08T00:54:59;100422.44;;;3.88;89.15
58072;BME280;60383;46.626;18.866;2022-12-08T00:57:24;100424.06;;;3.90;89.89
58072;BME280;60383;46.626;18.866;2022-12-08T00:59:50;100422.50;;;3.99;89.12
58072;BME280;60383;46.626;18.866;2022-12-08T01:02:15;100422.63;;;3.97;89.87
58072;BME280;60383;46.626;18.866;2022-12-08T01:04:40;100435.94;;;4.00;89.94
58072;BME280;60383;46.626;18.866;2022-12-08T01:07:06;100424.06;;;3.90;90.75
58072;BME280;60383;46.626;18.866;2022-12-08T01:09:32;100430.50;;;4.00;90.14
58072;BME280;60383;46.626;18.866;2022-12-08T01:11:58;100427.47;;;4.05;89.97
58072;BME280;60383;46.626;18.866;2022-12-08T01:14:23;100423.69;;;3.95;90.22
58072;BME280;60383;46.626;18.866;2022-12-08T01:16:49;100419.38;;;3.92;90.21
58072;BME280;60383;46.626;18.866;2022-12-08T01:19:15;100425.97;;;4.01;89.99
58072;BME280;60383;46.626;18.866;2022-12-08T01:21:42;100426.19;;;3.98;90.09
58072;BME280;60383;46.626;18.866;2022-12-08T01:24:13;100425.59;;;4.06;89.66
58072;BME280;60383;46.626;18.866;2022-12-08T01:26:39;100417.75;;;4.14;89.06
58072;BME280;60383;46.626;18.866;2022-12-08T01:29:05;100419.00;;;4.10;89.48
58072;BME280;60383;46.626;18.866;2022-12-08T01:31:30;100412.97;;;4.18;88.61
58072;BME280;60383;46.626;18.866;2022-12-08T01:33:55;100423.66;;;4.08;88.75
58072;BME280;60383;46.626;18.866;2022-12-08T01:36:27;100418.28;;;3.95;89.64
58072;BME280;60383;46.626;18.866;2022-12-08T01:38:55;100420.38;;;3.91;89.59
58072;BME280;60383;46.626;18.866;2022-12-08T01:41:23;100411.63;;;3.88;89.85
58072;BME280;60383;46.626;18.866;2022-12-08T01:46:14;100412.63;;;3.98;89.66
58072;BME280;60383;46.626;18.866;2022-12-08T01:48:39;100409.75;;;3.88;89.43
58072;BME280;60383;46.626;18.866;2022-12-08T01:51:05;100407.63;;;3.80;89.79
58072;BME280;60383;46.626;18.866;2022-12-08T01:53:31;100408.63;;;3.66;90.08
58072;BME280;60383;46.626;18.866;2022-12-08T01:56:10;100401.78;;;3.74;90.21
58072;BME280;60383;46.626;18.866;2022-12-08T01:58:40;100401.97;;;3.83;90.32
58072;BME280;60383;46.626;18.866;2022-12-08T02:01:08;100405.81;;;3.92;90.76
58072;BME280;60383;46.626;18.866;2022-12-08T02:06:00;100393.00;;;4.07;91.08
58072;BME280;60383;46.626;18.866;2022-12-08T02:08:26;100397.88;;;4.02;91.04
58072;BME280;60383;46.626;18.866;2022-12-08T02:10:52;100394.94;;;4.05;91.53
58072;BME280;60383;46.626;18.866;2022-12-08T02:13:19;100393.66;;;3.98;91.81
58072;BME280;60383;46.626;18.866;2022-12-08T02:21:12;100379.16;;;3.99;92.29
58072;BME280;60383;46.626;18.866;2022-12-08T02:29:11;100379.16;;;3.99;92.29
58072;BME280;60383;46.626;18.866;2022-12-08T02:42:24;100363.56;;;3.90;92.30
58072;BME280;60383;46.626;18.866;2022-12-08T02:44:57;100371.53;;;3.80;92.18
58072;BME280;60383;46.626;18.866;2022-12-08T02:47:26;100364.16;;;3.82;92.56
58072;BME280;60383;46.626;18.866;2022-12-08T02:49:54;100367.44;;;3.74;92.12
58072;BME280;60383;46.626;18.866;2022-12-08T02:54:50;100360.84;;;3.65;92.55
58072;BME280;60383;46.626;18.866;2022-12-08T03:00:10;100353.78;;;3.51;92.23
58072;BME280;60383;46.626;18.866;2022-12-08T03:02:47;100345.81;;;3.37;93.20
58072;BME280;60383;46.626;18.866;2022-12-08T03:08:31;100346.00;;;3.47;92.95
58072;BME280;60383;46.626;18.866;2022-12-08T03:11:16;100344.94;;;3.61;92.43
58072;BME280;60383;46.626;18.866;2022-12-08T03:13:58;100340.16;;;3.64;93.38
58072;BME280;60383;46.626;18.866;2022-12-08T03:16:26;100340.28;;;3.63;93.23
58072;BME280;60383;46.626;18.866;2022-12-08T03:18:56;100337.88;;;3.71;93.15
58072;BME280;60383;46.626;18.866;2022-12-08T03:21:24;100329.28;;;3.77;93.05
58072;BME280;60383;46.626;18.866;2022-12-08T03:23:52;100329.16;;;3.79;93.09
58072;BME280;60383;46.626;18.866;2022-12-08T03:26:51;100326.75;;;3.63;93.77
58072;BME280;60383;46.626;18.866;2022-12-08T03:29:19;100324.53;;;3.68;94.16
58072;BME280;60383;46.626;18.866;2022-12-08T03:31:50;100316.97;;;3.73;93.77
58072;BME280;60383;46.626;18.866;2022-12-08T03:34:17;100315.88;;;3.76;92.93
58072;BME280;60383;46.626;18.866;2022-12-08T03:36:44;100308.03;;;3.84;93.17
58072;BME280;60383;46.626;18.866;2022-12-08T03:39:10;100315.56;;;3.92;93.35
58072;BME280;60383;46.626;18.866;2022-12-08T03:41:36;100312.09;;;3.90;93.20
58072;BME280;60383;46.626;18.866;2022-12-08T03:44:01;100298.78;;;3.87;92.77
58072;BME280;60383;46.626;18.866;2022-12-08T03:46:29;100307.00;;;3.85;92.18
58072;BME280;60383;46.626;18.866;2022-12-08T03:48:54;100304.59;;;3.93;92.62
58072;BME280;60383;46.626;18.866;2022-12-08T03:51:20;100300.59;;;3.75;93.10
58072;BME280;60383;46.626;18.866;2022-12-08T03:53:47;100293.28;;;3.64;93.41
58072;BME280;60383;46.626;18.866;2022-12-08T03:56:30;100294.91;;;3.78;92.82
58072;BME280;60383;46.626;18.866;2022-12-08T03:58:56;100292.81;;;3.70;91.64
58072;BME280;60383;46.626;18.866;2022-12-08T04:01:22;100297.53;;;3.55;92.56
58072;BME280;60383;46.626;18.866;2022-12-08T04:03:48;100301.34;;;3.53;92.36
58072;BME280;60383;46.626;18.866;2022-12-08T04:06:14;100302.97;;;3.55;92.08
58072;BME280;60383;46.626;18.866;2022-12-08T04:08:39;100303.06;;;3.54;92.03
58072;BME280;60383;46.626;18.866;2022-12-08T04:11:05;100305.25;;;3.48;91.96
58072;BME280;60383;46.626;18.866;2022-12-08T04:13:34;100309.22;;;3.31;93.08
58072;BME280;60383;46.626;18.866;2022-12-08T04:16:01;100303.34;;;3.38;93.62
58072;BME280;60383;46.626;18.866;2022-12-08T04:18:26;100300.00;;;3.34;94.02
58072;BME280;60383;46.626;18.866;2022-12-08T04:20:52;100308.03;;;3.35;94.53
58072;BME280;60383;46.626;18.866;2022-12-08T04:23:18;100296.72;;;3.42;94.55
58072;BME280;60383;46.626;18.866;2022-12-08T04:25:43;100307.38;;;3.32;94.34
58072;BME280;60383;46.626;18.866;2022-12-08T04:28:08;100306.31;;;3.22;94.96
58072;BME280;60383;46.626;18.866;2022-12-08T04:30:34;100308.13;;;3.34;94.83
58072;BME280;60383;46.626;18.866;2022-12-08T04:33:00;100304.69;;;3.32;95.02
58072;BME280;60383;46.626;18.866;2022-12-08T04:35:26;100305.06;;;3.39;95.06
58072;BME280;60383;46.626;18.866;2022-12-08T04:37:51;100302.44;;;3.50;94.54
58072;BME280;60383;46.626;18.866;2022-12-08T04:40:17;100294.50;;;3.35;95.31
58072;BME280;60383;46.626;18.866;2022-12-08T04:42:42;100292.81;;;3.46;95.22
58072;BME280;60383;46.626;18.866;2022-12-08T04:45:08;100309.22;;;3.31;95.57
58072;BME280;60383;46.626;18.866;2022-12-08T04:47:33;100306.59;;;3.43;95.56
58072;BME280;60383;46.626;18.866;2022-12-08T04:49:59;100298.00;;;3.49;96.05
58072;BME280;60383;46.626;18.866;2022-12-08T04:52:25;100312.19;;;3.53;95.19
58072;BME280;60383;46.626;18.866;2022-12-08T04:54:50;100313.03;;;3.53;94.71
58072;BME280;60383;46.626;18.866;2022-12-08T04:57:16;100313.50;;;3.47;94.47
58072;BME280;60383;46.626;18.866;2022-12-08T04:59:41;100304.78;;;3.55;94.21
58072;BME280;60383;46.626;18.866;2022-12-08T05:02:07;100309.22;;;3.56;94.36
58072;BME280;60383;46.626;18.866;2022-12-08T05:04:32;100308.53;;;3.65;93.84
58072;BME280;60383;46.626;18.866;2022-12-08T05:06:58;100310.16;;;3.43;93.86
58072;BME280;60383;46.626;18.866;2022-12-08T05:09:23;100314.75;;;3.54;93.48
58072;BME280;60383;46.626;18.866;2022-12-08T05:11:49;100311.75;;;3.46;92.31
58072;BME280;60383;46.626;18.866;2022-12-08T05:14:16;100317.00;;;3.36;92.29
58072;BME280;60383;46.626;18.866;2022-12-08T05:16:43;100314.63;;;3.56;90.71
58072;BME280;60383;46.626;18.866;2022-12-08T05:19:09;100304.78;;;3.55;89.94
58072;BME280;60383;46.626;18.866;2022-12-08T05:21:34;100314.09;;;3.63;90.46
58072;BME280;60383;46.626;18.866;2022-12-08T05:24:00;100318.50;;;3.40;89.08
58072;BME280;60383;46.626;18.866;2022-12-08T05:26:25;100317.38;;;3.18;89.69
58072;BME280;60383;46.626;18.866;2022-12-08T05:28:50;100317.47;;;3.30;89.48
58072;BME280;60383;46.626;18.866;2022-12-08T05:31:16;100311.72;;;3.34;88.54
58072;BME280;60383;46.626;18.866;2022-12-08T05:33:45;100315.59;;;3.30;87.82
58072;BME280;60383;46.626;18.866;2022-12-08T05:36:13;100314.56;;;3.20;87.82
58072;BME280;60383;46.626;18.866;2022-12-08T05:38:39;100312.50;;;3.24;87.27
58072;BME280;60383;46.626;18.866;2022-12-08T05:41:06;100309.28;;;3.18;87.09
58072;BME280;60383;46.626;18.866;2022-12-08T05:43:32;100313.72;;;3.07;85.26
58072;BME280;60383;46.626;18.866;2022-12-08T05:45:57;100319.47;;;3.02;85.20
58072;BME280;60383;46.626;18.866;2022-12-08T05:48:23;100313.31;;;3.00;84.36
58072;BME280;60383;46.626;18.866;2022-12-08T05:50:49;100306.09;;;3.25;84.94
58072;BME280;60383;46.626;18.866;2022-12-08T05:53:16;100306.41;;;2.96;83.67
58072;BME280;60383;46.626;18.866;2022-12-08T05:55:42;100300.72;;;3.12;83.77
58072;BME280;60383;46.626;18.866;2022-12-08T05:58:11;100312.94;;;3.17;83.70
58072;BME280;60383;46.626;18.866;2022-12-08T06:00:37;100312.25;;;3.27;82.50
58072;BME280;60383;46.626;18.866;2022-12-08T06:03:03;100303.63;;;3.22;81.85
58072;BME280;60383;46.626;18.866;2022-12-08T06:05:31;100307.53;;;3.17;82.01
58072;BME280;60383;46.626;18.866;2022-12-08T06:07:57;100314.44;;;3.22;81.94
58072;BME280;60383;46.626;18.866;2022-12-08T06:10:22;100315.13;;;3.12;82.62
58072;BME280;60383;46.626;18.866;2022-12-08T06:12:48;100305.34;;;3.23;81.19
58072;BME280;60383;46.626;18.866;2022-12-08T06:15:13;100313.50;;;3.10;80.98
58072;BME280;60383;46.626;18.866;2022-12-08T06:17:38;100315.16;;;2.99;81.03
58072;BME280;60383;46.626;18.866;2022-12-08T06:20:04;100316.31;;;3.08;81.24
58072;BME280;60383;46.626;18.866;2022-12-08T06:22:30;100321.72;;;3.08;81.83
58072;BME280;60383;46.626;18.866;2022-12-08T06:24:55;100319.03;;;3.08;81.32
58072;BME280;60383;46.626;18.866;2022-12-08T06:27:21;100315.34;;;3.09;81.53
58072;BME280;60383;46.626;18.866;2022-12-08T06:29:46;100320.81;;;3.20;81.34
58072;BME280;60383;46.626;18.866;2022-12-08T06:32:12;100326.25;;;3.20;80.96
58072;BME280;60383;46.626;18.866;2022-12-08T06:34:37;100325.50;;;3.18;81.54
58072;BME280;60383;46.626;18.866;2022-12-08T06:37:03;100324.03;;;3.01;82.71
58072;BME280;60383;46.626;18.866;2022-12-08T06:39:28;100320.25;;;3.04;81.46
58072;BME280;60383;46.626;18.866;2022-12-08T06:41:53;100328.16;;;2.81;81.98
58072;BME280;60383;46.626;18.866;2022-12-08T06:44:38;100329.00;;;2.95;81.64
58072;BME280;60383;46.626;18.866;2022-12-08T06:47:04;100319.03;;;3.08;79.09
58072;BME280;60383;46.626;18.866;2022-12-08T06:49:29;100311.09;;;2.81;80.73
58072;BME280;60383;46.626;18.866;2022-12-08T06:51:54;100306.72;;;2.91;80.85
58072;BME280;60383;46.626;18.866;2022-12-08T06:54:20;100308.91;;;2.86;80.56
58072;BME280;60383;46.626;18.866;2022-12-08T06:56:46;100307.28;;;2.83;80.71
58072;BME280;60383;46.626;18.866;2022-12-08T06:59:11;100302.19;;;3.29;79.42
58072;BME280;60383;46.626;18.866;2022-12-08T07:01:37;100301.47;;;3.14;79.32
58072;BME280;60383;46.626;18.866;2022-12-08T07:04:02;100299.28;;;3.19;79.55
58072;BME280;60383;46.626;18.866;2022-12-08T07:06:28;100298.41;;;2.94;80.12
58072;BME280;60383;46.626;18.866;2022-12-08T07:08:53;100300.19;;;3.07;80.43
58072;BME280;60383;46.626;18.866;2022-12-08T07:11:19;100296.28;;;3.11;80.06
58072;BME280;60383;46.626;18.866;2022-12-08T07:13:44;100302.66;;;3.23;80.08
58072;BME280;60383;46.626;18.866;2022-12-08T07:16:11;100308.66;;;3.02;79.90
58072;BME280;60383;46.626;18.866;2022-12-08T07:18:37;100312.78;;;2.82;80.94
58072;BME280;60383;46.626;18.866;2022-12-08T07:21:08;100308.78;;;2.75;81.36
58072;BME280;60383;46.626;18.866;2022-12-08T07:23:36;100315.63;;;2.67;82.17
58072;BME280;60383;46.626;18.866;2022-12-08T07:26:04;100316.38;;;2.69;82.48
58072;BME280;60383;46.626;18.866;2022-12-08T07:28:31;100316.59;;;2.79;82.40
58072;BME280;60383;46.626;18.866;2022-12-08T07:30:57;100309.75;;;2.99;80.90
58072;BME280;60383;46.626;18.866;2022-12-08T07:33:23;100304.00;;;3.04;80.60
58072;BME280;60383;46.626;18.866;2022-12-08T07:36:02;100298.34;;;3.07;81.29
58072;BME280;60383;46.626;18.866;2022-12-08T07:38:29;100292.22;;;2.92;81.21
58072;BME280;60383;46.626;18.866;2022-12-08T07:40:55;100297.84;;;2.89;81.81
58072;BME280;60383;46.626;18.866;2022-12-08T07:43:21;100303.25;;;3.02;81.49
58072;BME280;60383;46.626;18.866;2022-12-08T07:45:46;100317.75;;;3.01;81.23
58072;BME280;60383;46.626;18.866;2022-12-08T07:48:12;100321.41;;;3.00;81.68
58072;BME280;60383;46.626;18.866;2022-12-08T07:50:37;100327.38;;;3.05;81.29
58072;BME280;60383;46.626;18.866;2022-12-08T07:53:03;100316.84;;;3.13;81.91
58072;BME280;60383;46.626;18.866;2022-12-08T07:55:29;100307.03;;;2.99;80.67
58072;BME280;60383;46.626;18.866;2022-12-08T07:57:54;100312.00;;;2.93;81.79
58072;BME280;60383;46.626;18.866;2022-12-08T08:00:20;100317.13;;;2.84;81.09
58072;BME280;60383;46.626;18.866;2022-12-08T08:02:45;100311.72;;;2.84;81.46
58072;BME280;60383;46.626;18.866;2022-12-08T08:05:11;100307.94;;;2.74;82.42
58072;BME280;60383;46.626;18.866;2022-12-08T08:07:38;100309.94;;;2.96;82.59
58072;BME280;60383;46.626;18.866;2022-12-08T08:10:04;100297.00;;;2.88;82.47
58072;BME280;60383;46.626;18.866;2022-12-08T08:12:31;100297.41;;;2.95;82.73
58072;BME280;60383;46.626;18.866;2022-12-08T08:14:56;100295.56;;;3.09;82.55
58072;BME280;60383;46.626;18.866;2022-12-08T08:17:23;100308.06;;;3.23;81.57
58072;BME280;60383;46.626;18.866;2022-12-08T08:19:49;100304.19;;;3.14;81.73
58072;BME280;60383;46.626;18.866;2022-12-08T08:22:14;100287.22;;;2.99;82.46
58072;BME280;60383;46.626;18.866;2022-12-08T08:24:40;100273.84;;;3.22;81.77
58072;BME280;60383;46.626;18.866;2022-12-08T08:27:05;100278.22;;;3.11;82.67
58072;BME280;60383;46.626;18.866;2022-12-08T08:29:31;100279.97;;;3.12;82.05
58072;BME280;60383;46.626;18.866;2022-12-08T08:31:56;100287.69;;;3.30;81.01
58072;BME280;60383;46.626;18.866;2022-12-08T08:34:22;100286.19;;;3.26;81.07
58072;BME280;60383;46.626;18.866;2022-12-08T08:36:47;100281.16;;;3.32;81.21
58072;BME280;60383;46.626;18.866;2022-12-08T08:39:12;100284.03;;;3.18;81.32
58072;BME280;60383;46.626;18.866;2022-12-08T08:41:38;100287.34;;;3.34;80.93
58072;BME280;60383;46.626;18.866;2022-12-08T08:44:04;100275.41;;;3.37;81.43
58072;BME280;60383;46.626;18.866;2022-12-08T08:46:29;100261.28;;;3.45;80.97
58072;BME280;60383;46.626;18.866;2022-12-08T08:48:56;100245.47;;;3.51;80.93
58072;BME280;60383;46.626;18.866;2022-12-08T08:51:22;100249.09;;;3.39;79.78
58072;BME280;60383;46.626;18.866;2022-12-08T08:53:47;100244.81;;;3.48;79.30
58072;BME280;60383;46.626;18.866;2022-12-08T08:56:15;100240.97;;;3.63;79.01
58072;BME280;60383;46.626;18.866;2022-12-08T08:58:42;100246.88;;;3.68;78.59
58072;BME280;60383;46.626;18.866;2022-12-08T09:01:08;100259.50;;;3.57;79.38
58072;BME280;60383;46.626;18.866;2022-12-08T09:03:38;100258.38;;;3.83;78.64
58072;BME280;60383;46.626;18.866;2022-12-08T09:06:03;100257.22;;;3.63;77.43
58072;BME280;60383;46.626;18.866;2022-12-08T09:08:29;100249.94;;;3.64;79.47
58072;BME280;60383;46.626;18.866;2022-12-08T09:10:54;100235.47;;;3.52;80.11
58072;BME280;60383;46.626;18.866;2022-12-08T09:13:20;100230.31;;;3.84;79.59
58072;BME280;60383;46.626;18.866;2022-12-08T09:15:46;100223.63;;;3.77;79.68
58072;BME280;60383;46.626;18.866;2022-12-08T09:18:11;100230.50;;;3.70;80.36
58072;BME280;60383;46.626;18.866;2022-12-08T09:20:37;100230.44;;;3.83;80.65
58072;BME280;60383;46.626;18.866;2022-12-08T09:23:02;100224.75;;;3.86;79.89
58072;BME280;60383;46.626;18.866;2022-12-08T09:25:28;100233.56;;;4.24;78.49
58072;BME280;60383;46.626;18.866;2022-12-08T09:27:53;100224.81;;;3.97;78.39
58072;BME280;60383;46.626;18.866;2022-12-08T09:30:19;100217.53;;;4.09;78.07
58072;BME280;60383;46.626;18.866;2022-12-08T09:32:44;100217.44;;;4.11;78.47
58072;BME280;60383;46.626;18.866;2022-12-08T09:35:10;100215.31;;;4.03;78.01
58072;BME280;60383;46.626;18.866;2022-12-08T09:37:35;100197.97;;;4.17;77.91
58072;BME280;60383;46.626;18.866;2022-12-08T09:40:00;100190.44;;;4.32;78.97
58072;BME280;60383;46.626;18.866;2022-12-08T09:47:36;100187.75;;;5.21;74.68
58072;BME280;60383;46.626;18.866;2022-12-08T09:50:24;100188.31;;;4.92;74.28
58072;BME280;60383;46.626;18.866;2022-12-08T09:53:19;100179.00;;;5.39;73.34
58072;BME280;60383;46.626;18.866;2022-12-08T09:55:53;100186.41;;;5.48;72.57
58072;BME280;60383;46.626;18.866;2022-12-08T10:01:12;100168.59;;;5.23;71.93
58072;BME280;60383;46.626;18.866;2022-12-08T10:03:39;100172.13;;;5.02;72.90
58072;BME280;60383;46.626;18.866;2022-12-08T10:11:38;100169.81;;;5.30;72.59
58072;BME280;60383;46.626;18.866;2022-12-08T10:17:35;100162.34;;;5.43;72.66
58072;BME280;60383;46.626;18.866;2022-12-08T10:20:25;100149.66;;;5.54;71.62
58072;BME280;60383;46.626;18.866;2022-12-08T10:23:08;100149.75;;;5.64;71.59
58072;BME280;60383;46.626;18.866;2022-12-08T10:25:43;100145.66;;;5.48;70.33
58072;BME280;60383;46.626;18.866;2022-12-08T10:28:10;100148.69;;;5.34;71.04
58072;BME280;60383;46.626;18.866;2022-12-08T10:30:35;100144.91;;;5.46;70.30
58072;BME280;60383;46.626;18.866;2022-12-08T10:33:01;100135.97;;;5.55;70.84
58072;BME280;60383;46.626;18.866;2022-12-08T10:35:51;100133.13;;;5.57;71.24
58072;BME280;60383;46.626;18.866;2022-12-08T10:38:21;100124.69;;;5.81;70.57
58072;BME280;60383;46.626;18.866;2022-12-08T10:40:49;100112.50;;;5.97;69.34
58072;BME280;60383;46.626;18.866;2022-12-08T10:43:23;100104.56;;;6.15;68.80
58072;BME280;60383;46.626;18.866;2022-12-08T10:45:51;100097.66;;;6.42;68.73
58072;BME280;60383;46.626;18.866;2022-12-08T10:48:23;100088.81;;;6.59;67.45
58072;BME280;60383;46.626;18.866;2022-12-08T10:50:55;100077.53;;;6.83;66.71
58072;BME280;60383;46.626;18.866;2022-12-08T10:53:28;100082.72;;;6.96;66.26
58072;BME280;60383;46.626;18.866;2022-12-08T10:58:42;100080.28;;;7.13;66.06
58072;BME280;60383;46.626;18.866;2022-12-08T11:03:47;100085.13;;;6.99;66.75
58072;BME280;60383;46.626;18.866;2022-12-08T11:08:57;100072.34;;;6.70;66.55
58072;BME280;60383;46.626;18.866;2022-12-08T11:11:43;100074.63;;;6.55;66.83
58072;BME280;60383;46.626;18.866;2022-12-08T11:14:17;100070.69;;;5.98;67.74
58072;BME280;60383;46.626;18.866;2022-12-08T11:16:43;100077.16;;;5.97;69.04
58072;BME280;60383;46.626;18.866;2022-12-08T11:19:15;100074.75;;;6.03;69.97
58072;BME280;60383;46.626;18.866;2022-12-08T11:21:41;100056.59;;;6.04;69.70
58072;BME280;60383;46.626;18.866;2022-12-08T11:24:23;100052.00;;;6.04;69.89
58072;BME280;60383;46.626;18.866;2022-12-08T11:29:17;100042.44;;;6.00;70.56
58072;BME280;60383;46.626;18.866;2022-12-08T11:31:53;100048.94;;;5.98;70.44
58072;BME280;60383;46.626;18.866;2022-12-08T11:34:45;100047.44;;;6.05;70.32
58072;BME280;60383;46.626;18.866;2022-12-08T11:37:27;100038.72;;;6.11;70.78
58072;BME280;60383;46.626;18.866;2022-12-08T11:39:55;100046.06;;;6.20;71.12
58072;BME280;60383;46.626;18.866;2022-12-08T11:42:25;100045.66;;;6.35;70.12
58072;BME280;60383;46.626;18.866;2022-12-08T11:44:57;100051.72;;;6.48;68.53
58072;BME280;60383;46.626;18.866;2022-12-08T11:47:42;100059.13;;;6.36;69.54
58072;BME280;60383;46.626;18.866;2022-12-08T11:50:25;100058.56;;;6.43;68.54
58072;BME280;60383;46.626;18.866;2022-12-08T11:52:53;100061.72;;;6.38;69.71
58072;BME280;60383;46.626;18.866;2022-12-08T11:55:36;100060.84;;;6.37;69.54
58072;BME280;60383;46.626;18.866;2022-12-08T12:01:17;100049.41;;;6.44;69.79
58072;BME280;60383;46.626;18.866;2022-12-08T12:03:46;100043.41;;;6.50;68.83
58072;BME280;60383;46.626;18.866;2022-12-08T12:20:12;100001.28;;;6.25;71.23
58072;BME280;60383;46.626;18.866;2022-12-08T12:22:41;100008.16;;;6.38;70.42
58072;BME280;60383;46.626;18.866;2022-12-08T12:25:17;100012.00;;;6.26;69.89
58072;BME280;60383;46.626;18.866;2022-12-08T12:27:44;100000.56;;;6.22;70.59
58072;BME280;60383;46.626;18.866;2022-12-08T12:30:22;100004.13;;;6.23;70.47
58072;BME280;60383;46.626;18.866;2022-12-08T12:32:58;100012.38;;;6.02;71.19
58072;BME280;60383;46.626;18.866;2022-12-08T12:35:34;99992.50;;;6.11;71.58
58072;BME280;60383;46.626;18.866;2022-12-08T12:38:22;99986.47;;;6.07;71.79
58072;BME280;60383;46.626;18.866;2022-12-08T12:41:09;99987.50;;;6.06;72.34
58072;BME280;60383;46.626;18.866;2022-12-08T12:43:37;99990.50;;;6.13;72.09
58072;BME280;60383;46.626;18.866;2022-12-08T12:48:51;99973.19;;;6.14;72.96
58072;BME280;60383;46.626;18.866;2022-12-08T12:54:24;99980.34;;;6.15;72.43
58072;BME280;60383;46.626;18.866;2022-12-08T12:59:34;99963.03;;;6.06;72.43
58072;BME280;60383;46.626;18.866;2022-12-08T13:05:12;99950.84;;;6.01;73.15
58072;BME280;60383;46.626;18.866;2022-12-08T13:10:27;99935.84;;;6.16;73.00
58072;BME280;60383;46.626;18.866;2022-12-08T13:13:20;99941.56;;;6.13;72.50
58072;BME280;60383;46.626;18.866;2022-12-08T13:18:40;99940.16;;;6.19;72.62
58072;BME280;60383;46.626;18.866;2022-12-08T13:34:15;99927.97;;;6.23;71.56
58072;BME280;60383;46.626;18.866;2022-12-08T13:44:43;99919.41;;;6.28;69.45
58072;BME280;60383;46.626;18.866;2022-12-08T13:47:23;99928.97;;;6.32;67.90
58072;BME280;60383;46.626;18.866;2022-12-08T13:49:58;99922.84;;;6.20;67.74
58072;BME280;60383;46.626;18.866;2022-12-08T13:52:42;99928.13;;;6.12;68.07
58072;BME280;60383;46.626;18.866;2022-12-08T13:55:17;99923.19;;;5.86;67.46
58072;BME280;60383;46.626;18.866;2022-12-08T13:57:47;99930.25;;;6.08;67.07
58072;BME280;60383;46.626;18.866;2022-12-08T14:00:15;99927.88;;;5.84;66.74
58072;BME280;60383;46.626;18.866;2022-12-08T14:02:44;99931.63;;;5.92;67.46
58072;BME280;60383;46.626;18.866;2022-12-08T14:05:10;99926.75;;;5.86;67.99
58072;BME280;60383;46.626;18.866;2022-12-08T14:07:37;99929.88;;;5.91;67.49
58072;BME280;60383;46.626;18.866;2022-12-08T14:10:07;99926.31;;;5.91;67.18
58072;BME280;60383;46.626;18.866;2022-12-08T14:12:34;99925.00;;;5.75;67.60
58072;BME280;60383;46.626;18.866;2022-12-08T14:15:02;99929.03;;;5.81;68.52
58072;BME280;60383;46.626;18.866;2022-12-08T14:17:30;99931.72;;;5.71;67.91
58072;BME280;60383;46.626;18.866;2022-12-08T14:20:01;99923.81;;;5.68;67.95
58072;BME280;60383;46.626;18.866;2022-12-08T14:22:35;99932.69;;;5.60;69.20
58072;BME280;60383;46.626;18.866;2022-12-08T14:25:02;99923.00;;;5.78;68.06
58072;BME280;60383;46.626;18.866;2022-12-08T14:27:32;99925.66;;;5.99;66.80
58072;BME280;60383;46.626;18.866;2022-12-08T14:30:18;99923.03;;;5.87;67.28
58072;BME280;60383;46.626;18.866;2022-12-08T14:32:47;99924.50;;;6.01;66.21
58072;BME280;60383;46.626;18.866;2022-12-08T14:35:28;99929.59;;;5.85;66.92
58072;BME280;60383;46.626;18.866;2022-12-08T14:37:56;99929.84;;;5.72;67.88
58072;BME280;60383;46.626;18.866;2022-12-08T14:40:26;99939.47;;;5.86;67.03
58072;BME280;60383;46.626;18.866;2022-12-08T14:45:33;99943.25;;;5.64;66.83
58072;BME280;60383;46.626;18.866;2022-12-08T14:53:21;99928.41;;;5.68;67.37
58072;BME280;60383;46.626;18.866;2022-12-08T14:55:47;99923.28;;;5.74;66.80
58072;BME280;60383;46.626;18.866;2022-12-08T14:58:29;99926.81;;;5.55;67.32
58072;BME280;60383;46.626;18.866;2022-12-08T15:00:58;99928.34;;;5.48;68.24
58072;BME280;60383;46.626;18.866;2022-12-08T15:03:28;99935.38;;;5.51;68.53